»·PEaware :: XOJ551 KLAX-KSAN

XOJ551 :: KLAX-KSAN

FLIGHT INFORMATION

Flight Status: Arrived
Operator:
XOJET
More flights by this operator :: More flights under this callsign
Pilot: Hassan P. (16390)
Aircraft: BOMBARDIER BD-100 CHALLENGER 300
(CL30)
More flights by this aircraft type
Origin: KLAX Los Angeles Intl
United States
Destination: KSAN San Diego Intl-Lindbergh
United States
More flights between these airports :: More routes between these airports
Route: LAXX1 MZB
File this flight plan on PilotEdge
Remarks:
Altitude:
(Current/Filed)
11,000ft
Speed:
(Current/Filed)
357kts
Departed: 16-May-18 07:18 AM
Arrived: 16-May-18 07:56 AM
Distance/Time
Traveled:
95nm/0:38
Distance/Time
To Go:
Arrived

Flight Plot

Page will automatically refresh every two minutes.

Flight plan parsing failed; only flown route is shown


Map Options




Map Legend


Flown Route
Filed Route
Departure Airport
Arrival Airport
Navaid (VOR, NDB)
Fix

Horizontal Profiles

Position Reports

Time Latitude Longitude Heading Altitude Ground
Speed
16-May-18 07:03 33.933522 -118.396892 287 109ft 0kts
16-May-18 07:04 33.933522 -118.396892 287 109ft 0kts
16-May-18 07:05 33.933522 -118.396892 287 109ft 0kts
16-May-18 07:06 33.933522 -118.396892 287 109ft 0kts
16-May-18 07:07 33.933493 -118.396786 289 109ft 0kts
16-May-18 07:08 33.933494 -118.396788 288 109ft 0kts
16-May-18 07:09 33.933964 -118.397996 316 109ft 7kts
16-May-18 07:10 33.934628 -118.397359 82 109ft 6kts
16-May-18 07:11 33.934897 -118.394709 83 109ft 12kts
16-May-18 07:12 33.935201 -118.391799 83 109ft 6kts
16-May-18 07:13 33.935524 -118.388630 83 109ft 9kts
16-May-18 07:14 33.935785 -118.386065 83 109ft 8kts
16-May-18 07:15 33.935953 -118.384444 82 109ft 6kts
16-May-18 07:16 33.936042 -118.383580 83 109ft 0kts
16-May-18 07:17 33.936346 -118.382846 26 109ft 8kts
16-May-18 07:18 33.935327 -118.402496 263 447ft 187kts
16-May-18 07:19 33.912827 -118.474320 232 4007ft 266kts
16-May-18 07:20 33.867462 -118.546196 234 5017ft 271kts
16-May-18 07:21 33.815828 -118.607954 185 5112ft 277kts
16-May-18 07:22 33.738838 -118.594389 172 6237ft 276kts
16-May-18 07:23 33.664643 -118.577526 171 8005ft 279kts
16-May-18 07:24 33.587686 -118.559062 171 8016ft 281kts
16-May-18 07:25 33.515492 -118.541209 171 9746ft 273kts
16-May-18 07:26 33.479046 -118.459387 101 11019ft 324kts
16-May-18 07:27 33.464294 -118.350542 101 11017ft 336kts
16-May-18 07:28 33.449364 -118.241108 101 11016ft 331kts
16-May-18 07:29 33.434226 -118.133164 101 11017ft 328kts
16-May-18 07:30 33.418408 -118.024300 102 11021ft 336kts
16-May-18 07:31 33.403972 -117.913241 101 11020ft 341kts
16-May-18 07:32 33.387108 -117.799283 101 11024ft 354kts
16-May-18 07:33 33.371692 -117.682129 101 11026ft 358kts
16-May-18 07:34 33.306841 -117.611889 159 11024ft 321kts
16-May-18 07:35 33.230936 -117.565390 153 11006ft 310kts
16-May-18 07:36 33.157191 -117.512492 151 11011ft 319kts
16-May-18 07:37 33.081462 -117.455323 150 11006ft 325kts
16-May-18 07:38 33.005912 -117.397396 150 10797ft 320kts
16-May-18 07:39 32.937145 -117.344496 149 9429ft 294kts
16-May-18 07:40 32.869814 -117.292743 148 7099ft 288kts
16-May-18 07:41 32.813459 -117.249328 150 6988ft 216kts
16-May-18 07:42 32.791430 -117.180831 100 7010ft 264kts
16-May-18 07:43 32.778751 -117.096150 100 7007ft 281kts
16-May-18 07:44 32.764576 -117.006007 100 6947ft 276kts
16-May-18 07:45 32.750849 -116.924352 100 5619ft 233kts
16-May-18 07:46 32.738556 -116.853609 100 4938ft 215kts
16-May-18 07:47 32.726348 -116.783435 100 4950ft 219kts
16-May-18 07:48 32.688000 -116.754185 230 4990ft 216kts
16-May-18 07:49 32.690763 -116.822420 281 4550ft 206kts
16-May-18 07:50 32.703079 -116.888877 276 4000ft 241kts
16-May-18 07:51 32.708120 -116.946219 276 3848ft 186kts
16-May-18 07:52 32.701612 -117.012461 261 2766ft 207kts
16-May-18 07:53 32.704532 -117.075356 286 1664ft 185kts
16-May-18 07:54 32.716997 -117.121049 284 1389ft 150kts
16-May-18 07:55 32.727504 -117.165069 286 435ft 129kts
16-May-18 07:56 32.734327 -117.192804 285 20ft 23kts
16-May-18 07:57 32.733775 -117.194725 125 19ft 0kts
16-May-18 07:58 32.732878 -117.191135 105 20ft 11kts
16-May-18 07:59 32.731983 -117.191232 262 20ft 3kts
16-May-18 08:00 32.731098 -117.190602 4 19ft 1kts
16-May-18 08:01 32.731158 -117.190620 332 19ft 0kts

Navigation Log

Ident Type
Flight plan parsing failed, navigation log unavailable